createdAt,value
2022-09-23T04:00:35.046Z,1.90
2022-09-23T04:05:34.901Z,1.70
2022-09-23T04:10:34.840Z,1.70
2022-09-23T04:15:41.858Z,1.80
2022-09-23T04:20:34.746Z,1.90
2022-09-23T04:25:34.685Z,1.70
2022-09-23T04:30:34.626Z,1.90
2022-09-23T04:35:39.360Z,1.90
2022-09-23T04:40:35.607Z,1.60
2022-09-23T04:45:34.470Z,1.90
2022-09-23T04:50:34.411Z,2.00
2022-09-23T04:55:34.379Z,2.10
2022-09-23T05:00:34.342Z,2.10
2022-09-23T05:05:34.251Z,1.70
2022-09-23T05:10:34.199Z,1.90
2022-09-23T05:15:34.197Z,1.80
2022-09-23T05:20:34.095Z,2.10
2022-09-23T05:25:38.086Z,2.00
2022-09-23T05:30:33.981Z,2.30
2022-09-23T05:35:33.959Z,1.90
2022-09-23T05:40:33.963Z,2.20
2022-09-23T05:45:33.822Z,2.00
2022-09-23T05:50:33.766Z,1.90
2022-09-23T05:55:33.734Z,1.70
2022-09-23T06:00:33.667Z,2.10
2022-09-23T06:05:33.605Z,1.90
2022-09-23T06:10:33.561Z,1.90
2022-09-23T06:15:33.522Z,1.80
2022-09-23T06:20:33.443Z,2.00
2022-09-23T06:25:33.396Z,2.10
2022-09-23T06:30:33.472Z,1.80
2022-09-23T06:35:33.400Z,1.60
2022-09-23T06:40:33.281Z,2.00
2022-09-23T06:45:33.165Z,2.00
2022-09-23T06:50:33.124Z,2.00
2022-09-23T06:55:33.093Z,1.80
2022-09-23T07:00:33.266Z,1.80
2022-09-23T07:05:32.959Z,1.50
2022-09-23T07:10:32.901Z,1.80
2022-09-23T07:15:32.988Z,1.30
2022-09-23T07:20:32.801Z,1.60
2022-09-23T07:25:32.743Z,1.80
2022-09-23T07:30:32.760Z,1.40
2022-09-23T07:35:32.653Z,1.40
2022-09-23T07:40:32.647Z,1.60
2022-09-23T07:45:32.525Z,1.60
2022-09-23T07:50:32.472Z,1.30
2022-09-23T07:55:32.436Z,1.60
2022-09-23T08:00:32.362Z,1.60
2022-09-23T08:05:32.330Z,1.40
2022-09-23T08:10:32.255Z,1.50
2022-09-23T08:15:32.261Z,1.60
2022-09-23T08:20:32.150Z,1.40
2022-09-23T08:25:34.631Z,1.70
2022-09-23T08:30:32.039Z,1.70
2022-09-23T08:35:32.002Z,1.60
2022-09-23T08:40:31.980Z,1.30
2022-09-23T08:45:31.872Z,1.70
2022-09-23T08:50:31.820Z,1.90
2022-09-23T08:55:31.785Z,1.50
2022-09-23T09:00:31.714Z,1.50
2022-09-23T09:05:31.652Z,1.40
2022-09-23T09:10:31.601Z,1.40
2022-09-23T09:15:31.620Z,1.50
2022-09-23T09:20:31.514Z,1.20
2022-09-23T09:25:34.138Z,1.50
2022-09-23T09:30:31.391Z,1.70
2022-09-23T09:35:31.396Z,1.30
2022-09-23T09:40:31.356Z,1.30
2022-09-23T09:45:33.516Z,1.50
2022-09-23T09:50:31.170Z,1.40
2022-09-23T09:55:31.097Z,1.40
2022-09-23T10:00:31.009Z,1.60
2022-09-23T10:05:30.954Z,1.50
2022-09-23T10:10:33.162Z,1.60
2022-09-23T10:15:42.426Z,1.40
2022-09-23T10:20:31.791Z,1.50
2022-09-23T10:25:30.736Z,1.60
2022-09-23T10:30:30.750Z,1.60
2022-09-23T10:35:30.772Z,1.50
2022-09-23T10:40:30.796Z,1.60
2022-09-23T10:45:30.526Z,1.90
2022-09-23T10:50:30.470Z,1.70
2022-09-23T10:55:30.444Z,1.70
2022-09-23T11:00:30.368Z,1.70
2022-09-23T11:05:30.314Z,1.60
2022-09-23T11:10:45.650Z,2.00
2022-09-23T11:15:31.224Z,1.90
2022-09-23T11:20:30.159Z,1.90
2022-09-23T11:25:30.105Z,1.80
2022-09-23T11:30:30.127Z,1.40
2022-09-23T11:35:30.018Z,1.50
2022-09-23T11:40:29.996Z,1.40
2022-09-23T11:45:29.889Z,1.50
2022-09-23T11:50:29.835Z,1.50
2022-09-23T11:55:29.798Z,1.40
2022-09-23T12:00:29.726Z,1.40
2022-09-23T12:05:29.852Z,1.20
2022-09-23T12:10:29.617Z,1.60
2022-09-23T12:15:29.594Z,1.30
2022-09-23T12:20:29.523Z,1.80
2022-09-23T12:25:29.468Z,1.30
2022-09-23T12:30:29.439Z,1.60
2022-09-23T12:35:29.476Z,1.50
2022-09-23T12:40:29.349Z,1.50
2022-09-23T12:45:29.255Z,1.50
2022-09-23T12:50:29.199Z,1.80
2022-09-23T12:55:29.161Z,1.50
2022-09-23T13:00:34.095Z,2.00
2022-09-23T13:05:30.040Z,1.80
2022-09-23T13:10:28.973Z,1.40
2022-09-23T13:15:28.949Z,1.50
2022-09-23T13:20:28.863Z,1.50
2022-09-23T13:25:28.835Z,1.60
2022-09-23T13:30:28.752Z,1.40
2022-09-23T13:35:28.742Z,1.30
2022-09-23T13:40:28.743Z,1.30
2022-09-23T13:45:28.692Z,1.50
2022-09-23T13:50:31.604Z,1.40
2022-09-23T13:55:29.545Z,1.30
2022-09-23T14:00:28.430Z,1.60
2022-09-23T14:05:28.404Z,1.60
2022-09-23T14:10:28.322Z,1.80
2022-09-23T14:15:28.416Z,1.20
2022-09-23T14:20:28.224Z,1.60
2022-09-23T14:25:28.196Z,1.80
2022-09-23T14:30:28.119Z,1.80
2022-09-23T14:35:28.112Z,1.80
2022-09-23T14:40:28.120Z,1.90
2022-09-23T14:45:27.990Z,1.60
2022-09-23T14:50:27.925Z,1.80
2022-09-23T14:55:27.882Z,1.70
2022-09-23T15:00:27.815Z,1.60
2022-09-23T15:05:27.774Z,1.60
2022-09-23T15:10:27.698Z,1.80
2022-09-23T15:15:27.680Z,1.30
2022-09-23T15:20:27.628Z,1.80
2022-09-23T15:25:27.537Z,1.30
2022-09-23T15:30:27.497Z,1.50
2022-09-23T15:35:27.480Z,1.20
2022-09-23T15:40:27.525Z,1.50
2022-09-23T15:45:27.443Z,1.20
2022-09-23T15:50:27.298Z,1.20
2022-09-23T15:55:27.281Z,1.20
2022-09-23T16:00:27.169Z,1.30
2022-09-23T16:05:27.127Z,1.10
2022-09-23T16:10:27.051Z,1.30
2022-09-23T16:15:34.068Z,1.40
2022-09-23T16:20:26.943Z,1.40
2022-09-23T16:25:26.906Z,1.30
2022-09-23T16:30:26.848Z,1.60
2022-09-23T16:35:26.811Z,1.20
2022-09-23T16:40:26.798Z,1.30
2022-09-23T16:45:26.689Z,1.10
2022-09-23T16:50:26.644Z,1.10
2022-09-23T16:55:26.587Z,1.20
2022-09-23T17:00:26.586Z,1.30
2022-09-23T17:05:26.477Z,1.30
2022-09-23T17:10:26.416Z,1.30
2022-09-23T17:15:26.376Z,1.30
2022-09-23T17:20:26.327Z,1.30
2022-09-23T17:25:26.611Z,1.40
2022-09-23T17:30:26.187Z,1.50
2022-09-23T17:35:26.184Z,1.80
2022-09-23T17:40:26.195Z,1.50
2022-09-23T17:45:26.130Z,1.80
2022-09-23T17:50:25.983Z,1.70
2022-09-23T17:55:25.944Z,1.90
2022-09-23T18:00:25.874Z,2.20
2022-09-23T18:05:25.823Z,2.80
2022-09-23T18:10:25.771Z,2.70
2022-09-23T18:15:25.729Z,1.90
2022-09-23T18:20:25.664Z,2.30
2022-09-23T18:25:38.689Z,2.20
2022-09-23T18:30:26.545Z,2.50
2022-09-23T18:35:25.509Z,2.40
2022-09-23T18:40:25.490Z,2.70
2022-09-23T18:45:25.419Z,2.40
2022-09-23T18:50:25.323Z,2.90
2022-09-23T18:55:25.292Z,2.80
2022-09-23T19:00:25.261Z,2.90
2022-09-23T19:05:25.162Z,3.00
2022-09-23T19:10:25.103Z,2.70
2022-09-23T19:15:25.066Z,3.10
2022-09-23T19:20:25.002Z,3.30
2022-09-23T19:25:24.927Z,3.30
2022-09-23T19:30:24.906Z,3.50
2022-09-23T19:35:24.860Z,3.20
2022-09-23T19:40:24.803Z,3.30
2022-09-23T19:45:24.717Z,3.50
2022-09-23T19:50:24.660Z,3.70
2022-09-23T19:55:24.616Z,3.80
2022-09-23T20:00:24.553Z,3.50
2022-09-23T20:05:24.508Z,3.80
2022-09-23T20:10:24.429Z,3.70
2022-09-23T20:15:24.404Z,4.10
2022-09-23T20:20:24.341Z,4.40
2022-09-23T20:25:24.269Z,5.20
2022-09-23T20:30:24.238Z,5.90
2022-09-23T20:35:24.194Z,5.20
2022-09-23T20:40:24.130Z,5.00
2022-09-23T20:45:24.059Z,4.90
2022-09-23T20:50:24.008Z,4.80
2022-09-23T20:55:23.959Z,4.40
2022-09-23T21:00:23.893Z,4.30
2022-09-23T21:05:23.842Z,3.70
2022-09-23T21:10:23.766Z,4.50
2022-09-23T21:15:23.748Z,3.70
2022-09-23T21:20:23.688Z,3.90
2022-09-23T21:25:28.510Z,4.00
2022-09-23T21:30:24.566Z,4.10
2022-09-23T21:35:23.581Z,4.10
2022-09-23T21:40:23.525Z,5.00
2022-09-23T21:45:23.383Z,5.20
2022-09-23T21:50:23.339Z,5.10
2022-09-23T21:55:23.298Z,4.90
2022-09-23T22:00:23.222Z,4.60
2022-09-23T22:05:23.176Z,4.50
2022-09-23T22:10:23.120Z,4.10
2022-09-23T22:15:23.074Z,4.40
2022-09-23T22:20:30.066Z,4.60
2022-09-23T22:25:22.943Z,4.80
2022-09-23T22:30:22.903Z,5.00
2022-09-23T22:35:22.865Z,4.90
2022-09-23T22:40:22.853Z,4.70
2022-09-23T22:45:22.737Z,5.00
2022-09-23T22:50:22.682Z,4.40
2022-09-23T22:55:22.643Z,4.70
2022-09-23T23:00:22.594Z,4.80
2022-09-23T23:05:22.523Z,4.80
2022-09-23T23:10:22.466Z,4.60
2022-09-23T23:15:22.429Z,4.60
2022-09-23T23:20:22.360Z,5.20
2022-09-23T23:25:22.289Z,5.40
